KWLD

Strother Field Airport

Winfield/Arkansas City, Kansas, USA
METAR KWLD 152054Z AUTO 21012KT 10SM CLR 16/02 A2997 RMK AO2 SLP151 T01560022 56022
Observed Flight Rules
Nov-15 @ 20:54 UTC (13 minutes ago) Visual Flight Rules
Wind Visibility Clouds
210° at 12 knots 10 miles
  • Clear skies
Temperatures Readings
Current 16°C / 61°F
Dewpoint 2°C / 36°F
Humidity 39%
Altimeter 29.97" Hg
Pressure 1015.1 hPa
Elevation 350
METAR KWLD 152054Z AUTO 21012KT 10SM CLR 16/02 A2997 RMK AO2 SLP151 T01560022 56022
Observed Flight Rules
Nov-15 @ 20:54 UTC
(13 minutes ago)
VFR
Wind Visibility
210° at 12 knots 10 miles
Clouds
  • Clear skies
Temperature Dewpoint
16°C / 61°F 2°C / 36°F
Humidity Altimeter Pressure
39% 29.97" Hg 1015.1 hPa